Time;durP1;ratioP1;P1;durP2;ratioP2;P2;SDS_P1;SDS_P2;PMS_P1;PMS_P2;Temp;Humidity;BMP_temperature;BMP_pressure;BME280_temperature;BME280_humidity;BME280_pressure;Samples;Min_cycle;Max_cycle;Signal;HPM_P1;HPM_P2
2024/03/08 00:00:19;;;;;;;27.77;17.13;;;1.10;99.90;;;;;;4972556;28;20201;-62
2024/03/08 00:02:46;;;;;;;20.33;13.90;;;1.10;99.90;;;;;;4972652;28;20236;-62
2024/03/08 00:05:14;;;;;;;18.67;14.65;;;1.10;99.90;;;;;;4973103;28;20228;-62
2024/03/08 00:07:43;;;;;;;21.80;15.52;;;1.00;99.90;;;;;;4972710;28;20683;-62
2024/03/08 00:10:12;;;;;;;17.38;14.20;;;1.00;99.90;;;;;;4969684;28;20260;-62
2024/03/08 00:12:41;;;;;;;23.02;16.80;;;1.00;99.90;;;;;;4972345;28;20845;-62
2024/03/08 00:15:09;;;;;;;21.30;16.38;;;1.00;99.90;;;;;;4972645;28;20802;-62
2024/03/08 00:17:36;;;;;;;22.88;16.35;;;1.00;99.90;;;;;;4972522;28;20292;-62
2024/03/08 00:20:08;;;;;;;20.83;14.93;;;1.00;99.90;;;;;;4972608;28;20339;-61
2024/03/08 00:22:35;;;;;;;23.83;16.55;;;1.00;99.90;;;;;;4969706;28;20315;-62
2024/03/08 00:25:04;;;;;;;17.77;13.82;;;0.90;99.90;;;;;;4972972;28;20210;-62
2024/03/08 00:27:31;;;;;;;20.30;14.88;;;0.90;99.90;;;;;;4972755;28;20209;-62
2024/03/08 00:29:58;;;;;;;20.58;15.98;;;0.90;99.90;;;;;;4972336;28;20205;-62
2024/03/08 00:32:25;;;;;;;18.45;13.93;;;0.90;99.90;;;;;;4970786;28;20225;-62
2024/03/08 00:34:52;;;;;;;24.85;14.65;;;0.90;99.90;;;;;;4972887;28;20292;-62
2024/03/08 00:37:19;;;;;;;26.90;17.42;;;0.90;99.90;;;;;;4972873;28;20636;-62
2024/03/08 00:39:46;;;;;;;22.92;15.65;;;0.90;99.90;;;;;;4972704;28;20213;-62
2024/03/08 00:42:14;;;;;;;23.60;16.80;;;0.90;99.90;;;;;;4972347;28;20718;-62
2024/03/08 00:44:41;;;;;;;20.95;18.30;;;0.90;99.90;;;;;;4972757;28;20209;-62
2024/03/08 00:47:08;;;;;;;21.67;16.00;;;0.80;99.90;;;;;;4972605;28;20205;-62
2024/03/08 00:49:36;;;;;;;18.08;13.50;;;0.80;99.90;;;;;;4972248;28;20209;-62
2024/03/08 00:52:03;;;;;;;22.33;16.88;;;0.80;99.90;;;;;;4972430;28;20233;-62
2024/03/08 00:54:30;;;;;;;18.15;14.77;;;0.80;99.90;;;;;;4972510;28;20296;-61
2024/03/08 00:56:57;;;;;;;27.50;15.70;;;0.80;99.90;;;;;;4972132;28;20228;-62
2024/03/08 00:59:25;;;;;;;24.90;15.63;;;0.80;99.90;;;;;;4972673;28;20215;-63
2024/03/08 01:01:52;;;;;;;20.95;15.68;;;0.80;99.90;;;;;;4972232;28;20599;-62
2024/03/08 01:04:20;;;;;;;24.48;17.42;;;0.80;99.90;;;;;;4972628;28;20224;-62
2024/03/08 01:06:47;;;;;;;19.67;14.10;;;0.70;99.90;;;;;;4972408;28;20616;-62
2024/03/08 01:09:14;;;;;;;20.42;17.55;;;0.70;99.90;;;;;;4967069;28;20629;-62
2024/03/08 01:11:42;;;;;;;19.77;15.40;;;0.70;99.90;;;;;;4971493;28;20617;-62
2024/03/08 01:14:09;;;;;;;20.42;16.85;;;0.70;99.90;;;;;;4970515;28;20260;-62
2024/03/08 01:16:37;;;;;;;24.30;15.98;;;0.70;99.90;;;;;;4971653;28;20232;-62
2024/03/08 01:19:04;;;;;;;21.20;18.38;;;0.70;99.90;;;;;;4972355;28;20225;-62
2024/03/08 01:21:31;;;;;;;19.55;15.38;;;0.60;99.90;;;;;;4971567;28;20228;-62
2024/03/08 01:23:57;;;;;;;22.60;17.05;;;0.60;99.90;;;;;;4971405;28;20594;-62
2024/03/08 01:26:24;;;;;;;21.92;15.88;;;0.60;99.90;;;;;;4972900;28;20300;-62
2024/03/08 01:28:51;;;;;;;26.98;16.40;;;0.60;99.90;;;;;;4971603;28;20300;-62
2024/03/08 01:31:18;;;;;;;22.75;16.88;;;0.60;99.90;;;;;;4972210;28;20223;-61
2024/03/08 01:33:46;;;;;;;19.92;14.63;;;0.60;99.90;;;;;;4972626;28;20212;-62
2024/03/08 01:36:15;;;;;;;21.98;15.27;;;0.60;99.90;;;;;;4972711;28;20228;-62
2024/03/08 01:38:42;;;;;;;22.65;14.52;;;0.60;99.90;;;;;;4972549;28;20209;-62
2024/03/08 01:41:09;;;;;;;21.52;16.70;;;0.60;99.90;;;;;;4972432;28;20219;-62
2024/03/08 01:43:36;;;;;;;25.20;15.07;;;0.50;99.90;;;;;;4971957;28;20209;-62
2024/03/08 01:46:03;;;;;;;23.35;15.70;;;0.50;99.90;;;;;;4972718;28;20292;-62
2024/03/08 01:48:30;;;;;;;23.45;15.65;;;0.50;99.90;;;;;;4972525;28;20216;-62
2024/03/08 01:51:00;;;;;;;20.65;15.80;;;0.50;99.90;;;;;;4972066;28;20216;-62
2024/03/08 01:53:28;;;;;;;22.73;15.45;;;0.50;99.90;;;;;;4972574;28;20312;-62
2024/03/08 01:55:58;;;;;;;22.23;16.50;;;0.50;99.90;;;;;;4971811;28;20319;-62
2024/03/08 01:58:25;;;;;;;29.25;17.02;;;0.40;99.90;;;;;;4972452;28;20205;-62
2024/03/08 02:00:54;;;;;;;20.13;15.57;;;0.40;99.90;;;;;;4971718;28;20295;-62
2024/03/08 02:03:22;;;;;;;22.23;16.00;;;0.40;99.90;;;;;;4972328;28;20315;-62
2024/03/08 02:05:49;;;;;;;24.77;15.40;;;0.40;99.90;;;;;;4972112;28;20699;-62
2024/03/08 02:08:18;;;;;;;21.52;16.05;;;0.40;99.90;;;;;;4972123;28;20197;-63
2024/03/08 02:10:45;;;;;;;23.00;17.85;;;0.40;99.90;;;;;;4972159;28;20213;-62
2024/03/08 02:13:12;;;;;;;24.33;17.90;;;0.30;99.90;;;;;;4971939;28;20734;-63
2024/03/08 02:15:52;;;;;;;28.48;16.13;;;0.30;99.90;;;;;;4972137;28;20596;-62
2024/03/08 02:18:19;;;;;;;19.60;15.55;;;0.30;99.90;;;;;;4971906;28;20212;-62
2024/03/08 02:20:48;;;;;;;25.55;17.70;;;0.30;99.90;;;;;;4972098;28;20205;-62
2024/03/08 02:23:15;;;;;;;24.17;16.10;;;0.30;99.90;;;;;;4972083;28;20244;-62
2024/03/08 02:25:42;;;;;;;25.45;18.15;;;0.30;99.90;;;;;;4972164;28;20240;-62
2024/03/08 02:28:11;;;;;;;25.10;16.20;;;0.30;99.90;;;;;;4972025;28;20209;-62
2024/03/08 02:30:38;;;;;;;22.63;16.75;;;0.30;99.90;;;;;;4972023;28;20308;-62
2024/03/08 02:33:05;;;;;;;22.45;14.88;;;0.30;99.90;;;;;;4972236;28;20280;-62
2024/03/08 02:35:32;;;;;;;20.42;17.00;;;0.30;99.90;;;;;;4972237;28;20295;-62
2024/03/08 02:38:00;;;;;;;24.73;17.80;;;0.30;99.90;;;;;;4972114;28;20216;-63
2024/03/08 02:40:27;;;;;;;23.23;17.85;;;0.20;99.90;;;;;;4971867;28;20209;-62
2024/03/08 02:42:54;;;;;;;24.50;17.80;;;0.30;99.90;;;;;;4971320;28;20231;-62
2024/03/08 02:45:21;;;;;;;22.80;16.30;;;0.20;99.90;;;;;;4971761;28;20205;-62
2024/03/08 02:47:49;;;;;;;26.33;16.05;;;0.20;99.90;;;;;;4972090;28;20213;-62
2024/03/08 02:50:16;;;;;;;21.58;16.20;;;0.20;99.90;;;;;;4971855;28;20212;-62
2024/03/08 02:52:43;;;;;;;26.00;17.20;;;0.20;99.90;;;;;;4971252;28;20228;-62
2024/03/08 02:55:15;;;;;;;26.55;18.05;;;0.20;99.90;;;;;;4973445;28;20303;-62
2024/03/08 02:57:42;;;;;;;23.33;17.17;;;0.20;99.90;;;;;;4975317;28;20225;-62
2024/03/08 03:00:09;;;;;;;23.63;15.43;;;0.20;99.90;;;;;;4971157;28;20868;-62
2024/03/08 03:02:37;;;;;;;19.83;16.10;;;0.20;99.90;;;;;;4974369;28;20237;-62
2024/03/08 03:05:05;;;;;;;27.42;18.33;;;0.20;99.90;;;;;;4972883;28;20205;-63
2024/03/08 03:07:33;;;;;;;24.05;17.00;;;0.20;99.90;;;;;;4974514;28;20213;-62
2024/03/08 03:10:00;;;;;;;22.08;16.73;;;0.10;99.90;;;;;;4974339;28;20292;-62
2024/03/08 03:12:28;;;;;;;22.90;16.85;;;0.10;99.90;;;;;;4974793;28;20241;-62
2024/03/08 03:14:56;;;;;;;20.20;14.02;;;0.10;99.90;;;;;;4975394;28;20667;-62
2024/03/08 03:17:24;;;;;;;28.02;18.25;;;0.10;99.90;;;;;;4975018;28;20232;-62
2024/03/08 03:19:51;;;;;;;23.77;16.92;;;0.20;99.90;;;;;;4974774;28;20282;-62
2024/03/08 03:22:18;;;;;;;29.65;19.63;;;0.10;99.90;;;;;;4974929;28;20795;-62
2024/03/08 03:24:46;;;;;;;25.52;17.60;;;0.10;99.90;;;;;;4974861;28;20209;-62
2024/03/08 03:27:13;;;;;;;27.23;17.83;;;0.20;99.90;;;;;;4975102;28;20217;-62
2024/03/08 03:29:42;;;;;;;18.92;16.48;;;0.10;99.90;;;;;;4974407;28;20216;-63
2024/03/08 03:32:09;;;;;;;29.55;17.52;;;0.10;99.90;;;;;;4974944;28;20233;-62
2024/03/08 03:34:36;;;;;;;26.48;17.08;;;0.10;99.90;;;;;;4973423;28;20225;-62
2024/03/08 03:37:03;;;;;;;24.77;18.60;;;0.10;99.90;;;;;;4974293;28;20879;-62
2024/03/08 03:39:31;;;;;;;23.75;17.35;;;0.10;99.90;;;;;;4974155;28;20215;-62
2024/03/08 03:41:58;;;;;;;24.27;18.55;;;0.10;99.90;;;;;;4974587;28;20233;-62
2024/03/08 03:44:25;;;;;;;27.55;19.10;;;0.10;99.90;;;;;;4974721;28;20212;-62
2024/03/08 03:46:53;;;;;;;28.52;17.38;;;0.10;99.90;;;;;;4974702;28;20209;-62
2024/03/08 03:49:20;;;;;;;24.40;17.38;;;0.00;99.90;;;;;;4974472;28;20695;-62
2024/03/08 03:51:47;;;;;;;24.40;17.65;;;0.10;99.90;;;;;;4974138;28;20237;-61
2024/03/08 03:54:14;;;;;;;30.27;18.17;;;0.10;99.90;;;;;;4974386;28;20221;-62
2024/03/08 03:56:41;;;;;;;21.77;17.48;;;0.00;99.90;;;;;;4974215;28;20717;-62
2024/03/08 03:59:08;;;;;;;28.63;18.25;;;0.00;99.90;;;;;;4974675;28;20647;-62
2024/03/08 04:01:35;;;;;;;21.42;17.67;;;0.00;99.90;;;;;;4973281;28;20236;-62
2024/03/08 04:04:05;;;;;;;28.52;18.88;;;0.10;99.90;;;;;;4974380;28;20295;-62
2024/03/08 04:06:31;;;;;;;24.90;17.35;;;0.10;99.90;;;;;;4973470;28;20229;-62
2024/03/08 04:08:58;;;;;;;28.17;17.60;;;0.00;99.90;;;;;;4974252;28;20215;-62
2024/03/08 04:11:25;;;;;;;27.17;18.75;;;0.00;99.90;;;;;;4973921;28;20247;-62
2024/03/08 04:13:52;;;;;;;23.17;16.75;;;0.00;99.90;;;;;;4974318;28;20205;-62
2024/03/08 04:16:19;;;;;;;22.83;18.05;;;0.00;99.90;;;;;;4974087;28;20295;-62
2024/03/08 04:18:46;;;;;;;26.05;16.00;;;0.00;99.90;;;;;;4973996;28;20212;-62
2024/03/08 04:21:14;;;;;;;29.13;18.83;;;0.00;99.90;;;;;;4973406;28;20300;-62
2024/03/08 04:23:41;;;;;;;30.77;20.90;;;0.00;99.90;;;;;;4974062;28;20606;-62
2024/03/08 04:26:08;;;;;;;24.48;17.55;;;0.00;99.90;;;;;;4972869;28;20212;-62
2024/03/08 04:28:37;;;;;;;23.65;20.25;;;0.00;99.90;;;;;;4973803;28;20206;-62
2024/03/08 04:31:04;;;;;;;24.23;16.77;;;0.00;99.90;;;;;;4973745;28;20635;-62
2024/03/08 04:33:31;;;;;;;29.98;16.77;;;-0.10;99.90;;;;;;4973937;28;20208;-62
2024/03/08 04:35:58;;;;;;;28.98;19.23;;;-0.10;99.90;;;;;;4973954;28;20260;-62
2024/03/08 04:38:26;;;;;;;27.45;18.08;;;-0.10;99.90;;;;;;4973523;28;20279;-62
2024/03/08 04:40:53;;;;;;;27.63;17.05;;;-0.10;99.90;;;;;;4973181;28;20220;-62
2024/03/08 04:43:20;;;;;;;24.30;16.13;;;-0.10;99.90;;;;;;4973721;28;20304;-62
2024/03/08 04:45:48;;;;;;;27.88;18.48;;;-0.10;99.90;;;;;;4973665;28;20215;-62
2024/03/08 04:48:15;;;;;;;30.88;21.52;;;-0.10;99.90;;;;;;4973448;28;20205;-63
2024/03/08 04:50:42;;;;;;;32.80;20.27;;;-0.10;99.90;;;;;;4973115;28;20213;-62
2024/03/08 04:53:09;;;;;;;21.17;16.42;;;-0.20;99.90;;;;;;4973308;28;20251;-62
2024/03/08 04:55:37;;;;;;;29.45;18.63;;;-0.20;99.90;;;;;;4973231;28;20645;-62
2024/03/08 04:58:05;;;;;;;27.08;18.77;;;-0.20;99.90;;;;;;4973413;28;20228;-62
2024/03/08 05:00:32;;;;;;;27.95;21.98;;;-0.20;99.90;;;;;;4973069;28;20209;-62
2024/03/08 05:02:59;;;;;;;26.58;19.50;;;-0.20;99.90;;;;;;4973284;28;20251;-63
2024/03/08 05:05:28;;;;;;;29.08;18.35;;;-0.20;99.90;;;;;;4973162;28;20652;-62
2024/03/08 05:07:55;;;;;;;26.90;18.15;;;-0.20;99.90;;;;;;4973088;28;20201;-62
2024/03/08 05:10:22;;;;;;;24.90;16.58;;;-0.30;99.90;;;;;;4972690;28;20212;-62
2024/03/08 05:12:50;;;;;;;25.77;16.42;;;-0.30;99.90;;;;;;4972728;28;20323;-62
2024/03/08 05:15:17;;;;;;;28.42;22.35;;;-0.30;99.90;;;;;;4973085;28;20216;-62
2024/03/08 05:17:44;;;;;;;36.60;20.65;;;-0.30;99.90;;;;;;4972974;28;20586;-62
2024/03/08 05:20:13;;;;;;;28.55;18.60;;;-0.30;99.90;;;;;;4972512;28;20671;-62
2024/03/08 05:22:41;;;;;;;26.73;17.98;;;-0.30;99.90;;;;;;4972709;28;20321;-62
2024/03/08 05:25:08;;;;;;;28.05;19.45;;;-0.30;99.90;;;;;;4972946;28;20577;-62
2024/03/08 05:27:35;;;;;;;24.35;18.35;;;-0.30;99.90;;;;;;4972807;28;20205;-62
2024/03/08 05:30:04;;;;;;;21.95;16.42;;;-0.30;99.90;;;;;;4972516;28;20216;-62
2024/03/08 05:32:31;;;;;;;31.50;19.30;;;-0.40;99.90;;;;;;4972598;28;20233;-63
2024/03/08 05:34:58;;;;;;;30.55;19.90;;;-0.30;99.90;;;;;;4972729;28;20209;-62
2024/03/08 05:37:25;;;;;;;24.38;17.17;;;-0.30;99.90;;;;;;4972753;28;20237;-62
2024/03/08 05:39:53;;;;;;;25.63;18.88;;;-0.30;99.90;;;;;;4972484;28;20209;-62
2024/03/08 05:42:20;;;;;;;28.35;21.05;;;-0.40;99.90;;;;;;4972693;28;20233;-62
2024/03/08 05:44:47;;;;;;;33.97;18.48;;;-0.30;99.90;;;;;;4972475;28;20699;-62
2024/03/08 05:47:15;;;;;;;25.15;19.27;;;-0.40;99.90;;;;;;4972540;28;20668;-62
2024/03/08 05:49:44;;;;;;;27.75;18.52;;;-0.40;99.90;;;;;;4972235;28;20205;-62
2024/03/08 05:52:11;;;;;;;30.10;20.48;;;-0.40;99.90;;;;;;4972733;28;20233;-62
2024/03/08 05:54:37;;;;;;;23.85;17.80;;;-0.40;99.90;;;;;;4972386;28;20215;-62
2024/03/08 05:57:06;;;;;;;25.55;20.42;;;-0.30;99.90;;;;;;4972314;28;20229;-62
2024/03/08 05:59:33;;;;;;;24.33;19.92;;;-0.30;99.90;;;;;;4972149;28;20624;-62
2024/03/08 06:01:59;;;;;;;28.42;20.38;;;-0.40;99.90;;;;;;4972419;28;20874;-62
2024/03/08 06:04:29;;;;;;;27.35;18.85;;;-0.30;99.90;;;;;;4972490;28;20205;-62
2024/03/08 06:06:58;;;;;;;24.98;18.95;;;-0.30;99.90;;;;;;4972303;28;20244;-62
2024/03/08 06:09:25;;;;;;;31.88;21.50;;;-0.30;99.90;;;;;;4972213;28;20241;-62
2024/03/08 06:11:53;;;;;;;28.58;21.80;;;-0.40;99.90;;;;;;4972000;28;20660;-62
2024/03/08 06:14:20;;;;;;;34.88;19.88;;;-0.30;99.90;;;;;;4972178;28;20276;-62
2024/03/08 06:16:49;;;;;;;30.25;20.05;;;-0.30;99.90;;;;;;4972180;28;20220;-62
2024/03/08 06:19:16;;;;;;;30.30;21.23;;;-0.30;99.90;;;;;;4972386;28;20209;-62
2024/03/08 06:21:45;;;;;;;29.23;18.25;;;-0.30;99.90;;;;;;4971322;28;20225;-62
2024/03/08 06:24:12;;;;;;;25.05;17.73;;;-0.30;99.90;;;;;;4972060;28;20405;-62
2024/03/08 06:26:39;;;;;;;29.88;19.30;;;-0.30;99.90;;;;;;4971926;28;20209;-62
2024/03/08 06:29:06;;;;;;;34.40;21.30;;;-0.20;99.90;;;;;;4972015;28;20207;-62
2024/03/08 06:31:33;;;;;;;28.35;19.63;;;-0.20;99.90;;;;;;4975877;28;20237;-62
2024/03/08 06:34:01;;;;;;;26.45;21.25;;;-0.10;99.90;;;;;;4976136;28;20218;-62
2024/03/08 06:36:28;;;;;;;31.35;21.50;;;-0.10;99.90;;;;;;4976035;28;20227;-62
2024/03/08 06:38:57;;;;;;;26.88;18.67;;;-0.10;99.90;;;;;;4975914;28;20232;-62
2024/03/08 06:41:24;;;;;;;35.80;21.95;;;0.00;99.90;;;;;;4975526;28;20232;-62
2024/03/08 06:43:51;;;;;;;27.50;23.15;;;0.00;99.90;;;;;;4975766;28;20683;-62
2024/03/08 06:46:20;;;;;;;32.97;22.30;;;0.10;99.90;;;;;;4975968;28;20303;-62
2024/03/08 06:48:48;;;;;;;31.15;22.17;;;0.10;99.90;;;;;;4975929;28;20291;-62
2024/03/08 06:51:15;;;;;;;23.77;19.33;;;0.10;99.90;;;;;;4975404;28;20205;-62
2024/03/08 06:53:42;;;;;;;36.63;21.00;;;0.20;99.90;;;;;;4975439;28;20209;-62
2024/03/08 06:56:10;;;;;;;30.50;23.35;;;0.20;99.90;;;;;;4975315;28;20213;-62
2024/03/08 06:58:37;;;;;;;34.33;21.65;;;0.30;99.90;;;;;;4975458;28;20260;-62
2024/03/08 07:01:07;;;;;;;29.88;21.88;;;0.30;99.90;;;;;;4975167;28;20220;-63
2024/03/08 07:03:34;;;;;;;34.15;22.92;;;0.40;99.90;;;;;;4975584;28;20205;-62
2024/03/08 07:06:02;;;;;;;29.77;21.90;;;0.40;99.90;;;;;;4975468;28;20216;-62
2024/03/08 07:08:29;;;;;;;32.13;22.00;;;0.50;99.90;;;;;;4975366;28;20213;-63
2024/03/08 07:10:58;;;;;;;33.08;22.35;;;0.60;99.90;;;;;;4974891;28;20271;-62
2024/03/08 07:13:27;;;;;;;28.35;21.73;;;0.60;99.90;;;;;;4975181;28;20671;-62
2024/03/08 07:15:55;;;;;;;36.08;23.50;;;0.70;99.90;;;;;;4975474;28;20216;-63
2024/03/08 07:18:22;;;;;;;31.80;21.10;;;0.70;99.90;;;;;;4975143;28;20229;-62
2024/03/08 07:20:49;;;;;;;30.23;21.92;;;0.80;99.90;;;;;;4974853;28;20710;-62
2024/03/08 07:23:46;;;;;;;28.77;21.77;;;0.80;99.90;;;;;;4974902;28;20699;-62
2024/03/08 07:26:04;;;;;;;28.02;22.25;;;0.90;99.90;;;;;;4974858;28;20619;-62
2024/03/08 07:28:32;;;;;;;34.90;21.00;;;0.90;99.90;;;;;;4974880;28;20932;-62
2024/03/08 07:31:16;;;;;;;29.67;21.90;;;1.00;99.90;;;;;;4974801;28;20296;-62
2024/03/08 07:33:44;;;;;;;34.78;22.92;;;1.00;99.90;;;;;;4974925;28;20621;-63
2024/03/08 07:36:10;;;;;;;30.73;21.10;;;1.10;99.90;;;;;;4975034;28;20267;-62
2024/03/08 07:38:37;;;;;;;43.25;25.83;;;1.10;99.90;;;;;;4973856;28;20622;-64
2024/03/08 07:41:04;;;;;;;35.13;25.48;;;1.20;99.90;;;;;;4962913;28;20218;-62
2024/03/08 07:43:33;;;;;;;32.00;24.40;;;1.40;99.90;;;;;;4969645;28;20209;-62
2024/03/08 07:46:00;;;;;;;39.50;28.13;;;1.50;99.90;;;;;;4974233;28;20216;-62
2024/03/08 07:48:27;;;;;;;34.65;23.42;;;1.60;99.90;;;;;;4973935;28;20216;-62
2024/03/08 07:50:53;;;;;;;36.80;23.13;;;1.70;99.90;;;;;;4973746;28;20211;-62
2024/03/08 07:53:20;;;;;;;33.40;23.88;;;1.80;99.90;;;;;;4969906;28;20247;-63
2024/03/08 07:55:47;;;;;;;31.65;22.73;;;1.90;99.90;;;;;;4965773;28;20210;-62
2024/03/08 07:58:14;;;;;;;33.72;21.58;;;2.00;99.90;;;;;;4973615;28;20256;-62
2024/03/08 08:00:43;;;;;;;32.38;22.65;;;2.10;99.90;;;;;;4973368;28;20213;-62
2024/03/08 08:03:10;;;;;;;36.45;24.02;;;2.20;99.90;;;;;;4973816;28;20252;-61
2024/03/08 08:05:38;;;;;;;34.78;23.33;;;2.30;99.90;;;;;;4974040;28;20634;-62
2024/03/08 08:08:06;;;;;;;35.35;24.02;;;2.40;99.90;;;;;;4974097;28;21169;-61
2024/03/08 08:10:33;;;;;;;30.23;23.98;;;2.50;99.90;;;;;;4973223;28;20244;-62
2024/03/08 08:13:00;;;;;;;40.05;23.45;;;2.60;99.90;;;;;;4973349;28;20328;-62
2024/03/08 08:15:28;;;;;;;32.75;24.10;;;2.70;99.90;;;;;;4973737;28;20204;-62
2024/03/08 08:17:56;;;;;;;34.38;23.42;;;2.80;99.90;;;;;;4973489;28;20240;-61
2024/03/08 08:20:24;;;;;;;38.25;23.38;;;2.90;99.90;;;;;;4973366;28;20312;-61
2024/03/08 08:22:50;;;;;;;32.17;22.15;;;3.10;99.90;;;;;;4973400;28;20605;-61
2024/03/08 08:25:20;;;;;;;36.17;23.92;;;3.30;99.90;;;;;;4973087;28;20300;-62
2024/03/08 08:27:47;;;;;;;28.95;20.25;;;3.40;99.90;;;;;;4972427;28;20588;-62
2024/03/08 08:30:14;;;;;;;27.55;22.23;;;3.50;99.90;;;;;;4972789;28;20304;-62
2024/03/08 08:32:42;;;;;;;37.10;23.88;;;3.70;99.90;;;;;;4973417;28;20272;-62
2024/03/08 08:35:12;;;;;;;25.50;20.30;;;3.80;99.90;;;;;;4973466;28;20770;-62
2024/03/08 08:37:39;;;;;;;27.20;20.35;;;4.00;99.90;;;;;;4973649;28;20208;-62
2024/03/08 08:40:10;;;;;;;30.48;23.00;;;4.20;99.90;;;;;;4973254;28;20209;-62
2024/03/08 08:42:37;;;;;;;28.10;19.58;;;4.30;99.90;;;;;;4973100;28;20268;-62
2024/03/08 08:45:07;;;;;;;26.42;20.70;;;4.50;99.90;;;;;;4972967;28;20291;-62
2024/03/08 08:47:35;;;;;;;29.75;22.27;;;4.70;99.90;;;;;;4971400;28;20216;-62
2024/03/08 08:50:02;;;;;;;27.08;19.48;;;4.90;99.90;;;;;;4972371;28;20215;-62
2024/03/08 08:52:30;;;;;;;28.73;21.52;;;5.10;99.90;;;;;;4972968;28;20613;-63
2024/03/08 08:54:57;;;;;;;28.10;21.23;;;5.20;99.90;;;;;;4999416;23;20314;-66
2024/03/08 08:57:24;;;;;;;25.95;18.92;;;5.40;99.90;;;;;;5012524;28;20223;-66
2024/03/08 08:59:51;;;;;;;29.20;21.23;;;5.50;99.90;;;;;;5008346;28;20246;-66
2024/03/08 09:02:20;;;;;;;26.90;22.15;;;5.70;99.90;;;;;;4992783;28;20644;-66
2024/03/08 09:04:48;;;;;;;24.92;19.80;;;5.90;99.90;;;;;;4993975;28;20238;-66
2024/03/08 09:07:15;;;;;;;26.20;20.92;;;6.00;99.90;;;;;;5002682;28;20216;-66
2024/03/08 09:09:44;;;;;;;28.00;20.27;;;6.20;99.90;;;;;;4992061;28;20207;-67
2024/03/08 09:12:13;;;;;;;25.55;20.40;;;6.30;99.90;;;;;;4992391;28;20299;-66
2024/03/08 09:14:40;;;;;;;27.63;19.48;;;6.40;99.90;;;;;;4992577;28;20279;-66
2024/03/08 09:17:08;;;;;;;28.65;19.45;;;6.50;99.90;;;;;;4992147;28;20208;-66
2024/03/08 09:19:35;;;;;;;25.60;19.85;;;6.70;99.90;;;;;;4992390;28;20223;-66
2024/03/08 09:22:03;;;;;;;23.35;17.73;;;6.80;99.90;;;;;;4992606;28;20596;-66
2024/03/08 09:24:30;;;;;;;24.50;18.85;;;7.00;99.90;;;;;;4992600;28;20254;-66
2024/03/08 09:26:59;;;;;;;24.90;18.90;;;7.10;99.90;;;;;;4992609;28;20239;-66
2024/03/08 09:29:26;;;;;;;26.77;18.85;;;7.30;99.90;;;;;;4992289;28;20209;-67
2024/03/08 09:31:53;;;;;;;21.33;17.67;;;7.40;99.90;;;;;;4991717;28;20586;-66
2024/03/08 09:34:20;;;;;;;21.48;18.52;;;7.60;99.90;;;;;;4992174;28;20208;-66
2024/03/08 09:36:47;;;;;;;23.50;17.95;;;7.70;99.90;;;;;;4992595;28;20204;-66
2024/03/08 09:39:16;;;;;;;22.40;19.83;;;7.80;99.90;;;;;;4992276;28;20229;-66
2024/03/08 09:41:44;;;;;;;21.60;16.60;;;8.00;99.90;;;;;;4991824;28;20262;-66
2024/03/08 09:44:13;;;;;;;21.63;17.15;;;8.10;99.90;;;;;;4989790;28;20303;-66
2024/03/08 09:46:40;;;;;;;22.42;15.93;;;8.20;99.90;;;;;;4991811;28;20278;-66
2024/03/08 09:49:07;;;;;;;18.58;15.38;;;8.30;99.90;;;;;;4985926;28;20209;-66
2024/03/08 09:51:35;;;;;;;20.55;15.55;;;8.40;99.90;;;;;;4982125;28;20207;-66
2024/03/08 09:54:04;;;;;;;18.27;13.73;;;8.60;99.90;;;;;;4981128;28;20209;-66
2024/03/08 09:56:33;;;;;;;17.63;15.80;;;8.70;99.90;;;;;;4980154;28;20468;-66
2024/03/08 09:59:25;;;;;;;22.70;18.40;;;8.70;99.90;;;;;;4988683;28;20489;-66
2024/03/08 10:01:55;;;;;;;19.40;17.13;;;8.90;99.90;;;;;;4990609;28;20452;-66
2024/03/08 10:04:23;;;;;;;18.93;16.40;;;9.10;99.90;;;;;;4990902;28;20535;-66
2024/03/08 10:06:50;;;;;;;17.73;14.60;;;9.20;99.90;;;;;;4991648;28;20451;-66
2024/03/08 10:09:17;;;;;;;18.93;15.83;;;9.30;99.90;;;;;;4991076;28;20996;-66
2024/03/08 10:11:43;;;;;;;21.53;16.90;;;9.30;99.90;;;;;;4991161;28;20474;-66
2024/03/08 10:14:11;;;;;;;19.50;15.10;;;9.50;99.90;;;;;;4990871;28;20523;-66
2024/03/08 10:16:39;;;;;;;19.10;16.57;;;9.60;99.90;;;;;;4990887;28;20984;-66
2024/03/08 10:19:08;;;;;;;20.53;16.00;;;9.70;99.90;;;;;;4991060;28;20487;-66
2024/03/08 10:21:34;;;;;;;18.70;15.27;;;9.80;99.10;;;;;;4990894;28;20459;-66
2024/03/08 10:24:04;;;;;;;17.70;14.97;;;9.90;99.10;;;;;;4991130;28;20835;-66
2024/03/08 10:26:31;;;;;;;22.77;16.10;;;10.00;98.20;;;;;;4991483;28;20451;-66
2024/03/08 10:28:58;;;;;;;18.40;15.97;;;10.10;98.30;;;;;;4990998;28;20518;-66
2024/03/08 10:31:25;;;;;;;23.37;15.37;;;10.20;97.50;;;;;;4990977;28;20452;-66
2024/03/08 10:33:52;;;;;;;18.97;15.70;;;10.20;97.90;;;;;;4991085;28;20462;-67
2024/03/08 10:36:20;;;;;;;17.70;15.37;;;10.20;98.50;;;;;;4990702;28;20478;-66
2024/03/08 10:38:48;;;;;;;20.07;15.43;;;10.40;98.10;;;;;;4990695;28;20499;-66
2024/03/08 10:41:16;;;;;;;19.93;17.70;;;10.50;98.60;;;;;;4990809;28;20451;-67
2024/03/08 10:44:01;;;;;;;18.43;16.43;;;10.60;97.60;;;;;;4991209;28;20447;-66
2024/03/08 10:46:39;;;;;;;17.20;15.43;;;10.60;96.20;;;;;;4991054;28;20984;-66
2024/03/08 10:49:13;;;;;;;23.93;16.73;;;10.70;96.10;;;;;;4991299;28;20443;-66
2024/03/08 10:51:42;;;;;;;17.70;14.90;;;10.70;95.90;;;;;;4990718;28;20455;-66
2024/03/08 10:54:11;;;;;;;21.27;16.77;;;10.70;96.80;;;;;;4979968;28;20946;-66
2024/03/08 10:56:39;;;;;;;22.43;16.80;;;10.80;96.70;;;;;;4978690;28;20447;-67
2024/03/08 10:59:08;;;;;;;20.80;16.00;;;10.90;96.70;;;;;;4981523;28;20541;-67
2024/03/08 11:01:35;;;;;;;19.87;16.60;;;11.10;97.00;;;;;;4979643;28;20828;-67
2024/03/08 11:04:05;;;;;;;17.53;14.90;;;11.30;96.50;;;;;;4981687;28;20450;-66
2024/03/08 11:06:47;;;;;;;21.47;16.37;;;11.40;96.70;;;;;;4986165;28;20444;-67
2024/03/08 11:09:29;;;;;;;20.63;16.37;;;11.50;95.10;;;;;;4989166;28;20993;-67
2024/03/08 11:12:21;;;;;;;17.80;14.97;;;11.60;95.20;;;;;;4989510;28;20957;-67
2024/03/08 11:14:49;;;;;;;18.67;16.53;;;11.70;95.40;;;;;;4989485;28;20550;-67
2024/03/08 11:17:18;;;;;;;18.87;16.97;;;11.60;95.10;;;;;;4993262;28;20529;-66
2024/03/08 11:19:51;;;;;;;22.00;17.00;;;11.50;95.10;;;;;;4993132;28;20526;-67
2024/03/08 11:22:26;;;;;;;18.40;15.47;;;11.60;94.60;;;;;;4987516;28;21058;-66
2024/03/08 11:24:54;;;;;;;18.93;14.50;;;11.60;94.60;;;;;;4993179;28;21005;-67
2024/03/08 11:27:21;;;;;;;17.30;15.47;;;11.70;95.40;;;;;;4993185;28;20443;-66
2024/03/08 11:30:08;;;;;;;19.03;16.40;;;11.80;94.70;;;;;;4993034;28;20444;-67
2024/03/08 11:32:37;;;;;;;19.10;15.97;;;11.90;93.70;;;;;;4987551;28;20491;-66
2024/03/08 11:35:08;;;;;;;18.33;15.70;;;11.90;94.30;;;;;;4993147;28;20476;-66
2024/03/08 11:37:37;;;;;;;17.13;15.40;;;11.90;95.10;;;;;;4993211;28;20459;-67
2024/03/08 11:40:15;;;;;;;19.83;15.53;;;12.10;95.40;;;;;;4992419;28;20590;-67
2024/03/08 11:42:47;;;;;;;17.03;14.87;;;12.20;92.30;;;;;;4992868;28;20455;-66
2024/03/08 11:45:14;;;;;;;18.90;15.47;;;12.20;93.50;;;;;;4992293;28;20905;-67
2024/03/08 11:47:46;;;;;;;16.87;15.07;;;12.20;93.50;;;;;;4993167;28;20454;-66
2024/03/08 11:50:13;;;;;;;19.97;15.67;;;12.20;93.00;;;;;;4990418;28;20442;-66
2024/03/08 11:52:42;;;;;;;19.37;15.77;;;12.20;93.70;;;;;;4992608;28;20482;-66
2024/03/08 11:55:09;;;;;;;21.80;14.30;;;12.40;93.30;;;;;;4991973;28;21061;-66
2024/03/08 11:57:37;;;;;;;16.87;14.57;;;12.50;93.40;;;;;;4991914;28;20444;-67
2024/03/08 12:00:07;;;;;;;17.60;15.67;;;12.60;93.00;;;;;;4991696;28;20566;-66
2024/03/08 12:02:38;;;;;;;16.93;15.10;;;12.70;93.70;;;;;;4992324;28;20532;-67
2024/03/08 12:05:09;;;;;;;16.70;14.90;;;12.90;93.00;;;;;;4992279;28;20578;-67
2024/03/08 12:07:36;;;;;;;23.83;16.73;;;13.10;92.60;;;;;;4992347;28;20539;-67
2024/03/08 12:10:18;;;;;;;18.63;16.17;;;13.30;93.60;;;;;;4991171;28;20447;-67
2024/03/08 12:12:45;;;;;;;18.40;14.90;;;13.40;93.20;;;;;;4991786;28;20471;-66
2024/03/08 12:15:12;;;;;;;20.43;15.43;;;13.60;93.20;;;;;;4988420;28;20573;-66
2024/03/08 12:17:39;;;;;;;16.77;15.07;;;13.80;92.80;;;;;;4997220;28;20450;-67
2024/03/08 12:20:16;;;;;;;16.23;14.53;;;13.90;92.80;;;;;;4995372;28;20487;-67
2024/03/08 12:22:43;;;;;;;19.53;17.13;;;14.20;92.50;;;;;;5001517;28;20985;-66
2024/03/08 12:25:12;;;;;;;15.60;14.00;;;14.40;93.20;;;;;;4989307;28;20483;-66
2024/03/08 12:27:42;;;;;;;15.30;12.50;;;14.60;91.20;;;;;;4990397;28;20468;-67
2024/03/08 12:30:20;;;;;;;17.00;13.80;;;14.90;90.80;;;;;;4992141;28;20538;-67
2024/03/08 12:32:56;;;;;;;15.10;13.60;;;15.10;90.70;;;;;;4994032;28;20470;-66
2024/03/08 12:35:24;;;;;;;15.43;13.77;;;15.30;90.30;;;;;;4992370;28;20465;-66
2024/03/08 12:37:53;;;;;;;15.50;13.37;;;15.60;90.40;;;;;;4994858;28;20448;-67